sensor_id;sensor_type;location;lat;lon;timestamp;P1;durP1;ratioP1;P2;durP2;ratioP2
6725;SDS011;3400;48.506;11.692;2022-10-04T00:02:02;5.23;;;3.50;;
6725;SDS011;3400;48.506;11.692;2022-10-04T00:04:33;9.03;;;4.60;;
6725;SDS011;3400;48.506;11.692;2022-10-04T00:09:48;6.57;;;3.60;;
6725;SDS011;3400;48.506;11.692;2022-10-04T00:12:16;6.87;;;4.30;;
6725;SDS011;3400;48.506;11.692;2022-10-04T00:14:44;4.07;;;3.67;;
6725;SDS011;3400;48.506;11.692;2022-10-04T00:17:11;7.10;;;4.63;;
6725;SDS011;3400;48.506;11.692;2022-10-04T00:24:35;8.70;;;4.27;;
6725;SDS011;3400;48.506;11.692;2022-10-04T00:27:20;5.03;;;4.00;;
6725;SDS011;3400;48.506;11.692;2022-10-04T00:35:03;4.53;;;3.60;;
6725;SDS011;3400;48.506;11.692;2022-10-04T00:37:56;6.07;;;3.77;;
6725;SDS011;3400;48.506;11.692;2022-10-04T00:40:23;5.20;;;3.50;;
6725;SDS011;3400;48.506;11.692;2022-10-04T00:45:25;6.50;;;3.97;;
6725;SDS011;3400;48.506;11.692;2022-10-04T00:50:47;5.47;;;3.93;;
6725;SDS011;3400;48.506;11.692;2022-10-04T00:55:59;5.93;;;3.80;;
6725;SDS011;3400;48.506;11.692;2022-10-04T00:58:28;4.83;;;3.80;;
6725;SDS011;3400;48.506;11.692;2022-10-04T01:00:54;7.70;;;4.07;;
6725;SDS011;3400;48.506;11.692;2022-10-04T01:03:28;10.57;;;4.10;;
6725;SDS011;3400;48.506;11.692;2022-10-04T01:05:56;7.53;;;3.83;;
6725;SDS011;3400;48.506;11.692;2022-10-04T01:08:34;6.70;;;3.80;;
6725;SDS011;3400;48.506;11.692;2022-10-04T01:11:08;4.53;;;3.97;;
6725;SDS011;3400;48.506;11.692;2022-10-04T01:13:37;6.83;;;4.83;;
6725;SDS011;3400;48.506;11.692;2022-10-04T01:16:08;8.47;;;4.67;;
6725;SDS011;3400;48.506;11.692;2022-10-04T01:18:36;6.10;;;4.00;;
6725;SDS011;3400;48.506;11.692;2022-10-04T01:23:41;6.40;;;4.00;;
6725;SDS011;3400;48.506;11.692;2022-10-04T01:26:52;5.40;;;4.03;;
6725;SDS011;3400;48.506;11.692;2022-10-04T01:29:07;5.70;;;4.03;;
6725;SDS011;3400;48.506;11.692;2022-10-04T01:31:35;6.47;;;4.13;;
6725;SDS011;3400;48.506;11.692;2022-10-04T01:34:02;8.10;;;4.30;;
6725;SDS011;3400;48.506;11.692;2022-10-04T01:36:29;5.77;;;4.47;;
6725;SDS011;3400;48.506;11.692;2022-10-04T01:38:55;5.63;;;4.00;;
6725;SDS011;3400;48.506;11.692;2022-10-04T01:41:38;4.40;;;4.00;;
6725;SDS011;3400;48.506;11.692;2022-10-04T01:44:09;6.53;;;3.63;;
6725;SDS011;3400;48.506;11.692;2022-10-04T01:46:36;4.30;;;3.83;;
6725;SDS011;3400;48.506;11.692;2022-10-04T01:49:03;7.73;;;4.17;;
6725;SDS011;3400;48.506;11.692;2022-10-04T01:51:32;5.37;;;3.93;;
6725;SDS011;3400;48.506;11.692;2022-10-04T01:54:17;6.77;;;3.80;;
6725;SDS011;3400;48.506;11.692;2022-10-04T01:59:21;4.73;;;4.33;;
6725;SDS011;3400;48.506;11.692;2022-10-04T02:01:54;9.30;;;4.13;;
6725;SDS011;3400;48.506;11.692;2022-10-04T02:04:27;11.70;;;5.13;;
6725;SDS011;3400;48.506;11.692;2022-10-04T02:06:55;5.73;;;4.50;;
6725;SDS011;3400;48.506;11.692;2022-10-04T02:09:25;7.17;;;4.00;;
6725;SDS011;3400;48.506;11.692;2022-10-04T02:11:52;5.87;;;4.30;;
6725;SDS011;3400;48.506;11.692;2022-10-04T02:14:22;7.10;;;3.90;;
6725;SDS011;3400;48.506;11.692;2022-10-04T02:16:50;7.60;;;3.87;;
6725;SDS011;3400;48.506;11.692;2022-10-04T02:19:18;8.40;;;4.17;;
6725;SDS011;3400;48.506;11.692;2022-10-04T02:21:44;8.90;;;3.90;;
6725;SDS011;3400;48.506;11.692;2022-10-04T02:24:11;5.23;;;3.80;;
6725;SDS011;3400;48.506;11.692;2022-10-04T02:26:38;6.87;;;4.17;;
6725;SDS011;3400;48.506;11.692;2022-10-04T02:29:04;8.37;;;3.90;;
6725;SDS011;3400;48.506;11.692;2022-10-04T02:31:30;6.07;;;3.80;;
6725;SDS011;3400;48.506;11.692;2022-10-04T02:34:14;3.37;;;2.90;;
6725;SDS011;3400;48.506;11.692;2022-10-04T02:36:42;5.67;;;3.67;;
6725;SDS011;3400;48.506;11.692;2022-10-04T02:39:13;9.60;;;3.97;;
6725;SDS011;3400;48.506;11.692;2022-10-04T02:41:41;7.53;;;3.70;;
6725;SDS011;3400;48.506;11.692;2022-10-04T02:49:20;8.90;;;3.33;;
6725;SDS011;3400;48.506;11.692;2022-10-04T02:51:52;6.33;;;3.40;;
6725;SDS011;3400;48.506;11.692;2022-10-04T02:56:57;4.03;;;2.87;;
6725;SDS011;3400;48.506;11.692;2022-10-04T02:59:23;6.27;;;3.37;;
6725;SDS011;3400;48.506;11.692;2022-10-04T03:01:51;8.00;;;3.47;;
6725;SDS011;3400;48.506;11.692;2022-10-04T03:04:17;6.93;;;4.20;;
6725;SDS011;3400;48.506;11.692;2022-10-04T03:06:45;9.80;;;5.77;;
6725;SDS011;3400;48.506;11.692;2022-10-04T03:09:11;5.60;;;4.10;;
6725;SDS011;3400;48.506;11.692;2022-10-04T03:11:38;4.57;;;4.00;;
6725;SDS011;3400;48.506;11.692;2022-10-04T03:14:06;8.70;;;3.70;;
6725;SDS011;3400;48.506;11.692;2022-10-04T03:16:38;8.37;;;4.10;;
6725;SDS011;3400;48.506;11.692;2022-10-04T03:19:05;4.67;;;4.27;;
6725;SDS011;3400;48.506;11.692;2022-10-04T03:21:33;7.13;;;4.10;;
6725;SDS011;3400;48.506;11.692;2022-10-04T03:24:00;6.17;;;4.43;;
6725;SDS011;3400;48.506;11.692;2022-10-04T03:26:37;10.60;;;4.67;;
6725;SDS011;3400;48.506;11.692;2022-10-04T03:29:07;7.27;;;4.43;;
6725;SDS011;3400;48.506;11.692;2022-10-04T03:31:35;6.63;;;3.50;;
6725;SDS011;3400;48.506;11.692;2022-10-04T03:34:03;14.10;;;3.70;;
6725;SDS011;3400;48.506;11.692;2022-10-04T03:36:29;6.20;;;3.90;;
6725;SDS011;3400;48.506;11.692;2022-10-04T03:38:55;6.77;;;3.93;;
6725;SDS011;3400;48.506;11.692;2022-10-04T03:41:22;6.10;;;2.87;;
6725;SDS011;3400;48.506;11.692;2022-10-04T03:43:50;5.87;;;3.70;;
6725;SDS011;3400;48.506;11.692;2022-10-04T03:46:17;8.43;;;4.23;;
6725;SDS011;3400;48.506;11.692;2022-10-04T03:48:47;5.43;;;4.13;;
6725;SDS011;3400;48.506;11.692;2022-10-04T03:51:27;6.57;;;4.77;;
6725;SDS011;3400;48.506;11.692;2022-10-04T03:53:54;7.93;;;4.20;;
6725;SDS011;3400;48.506;11.692;2022-10-04T03:56:32;7.67;;;3.83;;
6725;SDS011;3400;48.506;11.692;2022-10-04T03:58:59;7.10;;;3.60;;
6725;SDS011;3400;48.506;11.692;2022-10-04T04:01:34;19.80;;;5.47;;
6725;SDS011;3400;48.506;11.692;2022-10-04T04:04:18;12.93;;;5.97;;
6725;SDS011;3400;48.506;11.692;2022-10-04T04:06:49;5.03;;;3.83;;
6725;SDS011;3400;48.506;11.692;2022-10-04T04:09:29;8.57;;;3.93;;
6725;SDS011;3400;48.506;11.692;2022-10-04T04:11:58;5.67;;;4.40;;
6725;SDS011;3400;48.506;11.692;2022-10-04T04:14:25;4.50;;;3.80;;
6725;SDS011;3400;48.506;11.692;2022-10-04T04:16:52;6.57;;;4.10;;
6725;SDS011;3400;48.506;11.692;2022-10-04T04:19:21;7.30;;;3.80;;
6725;SDS011;3400;48.506;11.692;2022-10-04T04:21:48;4.53;;;3.00;;
6725;SDS011;3400;48.506;11.692;2022-10-04T04:24:22;4.60;;;3.10;;
6725;SDS011;3400;48.506;11.692;2022-10-04T04:26:50;5.60;;;3.10;;
6725;SDS011;3400;48.506;11.692;2022-10-04T04:31:58;4.07;;;3.67;;
6725;SDS011;3400;48.506;11.692;2022-10-04T04:34:26;4.57;;;3.33;;
6725;SDS011;3400;48.506;11.692;2022-10-04T04:37:01;6.07;;;3.63;;
6725;SDS011;3400;48.506;11.692;2022-10-04T04:39:28;3.67;;;2.90;;
6725;SDS011;3400;48.506;11.692;2022-10-04T04:44:52;4.30;;;3.20;;
6725;SDS011;3400;48.506;11.692;2022-10-04T04:47:34;5.67;;;3.57;;
6725;SDS011;3400;48.506;11.692;2022-10-04T04:50:02;5.97;;;3.60;;
6725;SDS011;3400;48.506;11.692;2022-10-04T04:52:29;7.80;;;3.63;;
6725;SDS011;3400;48.506;11.692;2022-10-04T04:54:56;3.67;;;3.37;;
6725;SDS011;3400;48.506;11.692;2022-10-04T04:57:22;5.27;;;3.47;;
6725;SDS011;3400;48.506;11.692;2022-10-04T04:59:49;5.77;;;3.83;;
6725;SDS011;3400;48.506;11.692;2022-10-04T05:07:37;4.33;;;3.60;;
6725;SDS011;3400;48.506;11.692;2022-10-04T05:10:17;7.90;;;3.70;;
6725;SDS011;3400;48.506;11.692;2022-10-04T05:12:43;4.23;;;3.37;;
6725;SDS011;3400;48.506;11.692;2022-10-04T05:15:11;4.17;;;3.27;;
6725;SDS011;3400;48.506;11.692;2022-10-04T05:17:37;3.40;;;2.90;;
6725;SDS011;3400;48.506;11.692;2022-10-04T05:20:03;2.93;;;2.73;;
6725;SDS011;3400;48.506;11.692;2022-10-04T05:22:29;3.30;;;3.10;;
6725;SDS011;3400;48.506;11.692;2022-10-04T05:24:57;3.30;;;3.00;;
6725;SDS011;3400;48.506;11.692;2022-10-04T05:27:40;3.10;;;2.90;;
6725;SDS011;3400;48.506;11.692;2022-10-04T05:35:16;3.30;;;3.00;;
6725;SDS011;3400;48.506;11.692;2022-10-04T05:43:28;11.27;;;3.73;;
6725;SDS011;3400;48.506;11.692;2022-10-04T05:48:40;4.10;;;3.70;;
6725;SDS011;3400;48.506;11.692;2022-10-04T05:51:26;9.80;;;4.10;;
6725;SDS011;3400;48.506;11.692;2022-10-04T05:53:53;3.63;;;3.33;;
6725;SDS011;3400;48.506;11.692;2022-10-04T06:07:24;7.40;;;5.77;;
6725;SDS011;3400;48.506;11.692;2022-10-04T06:22:21;8.47;;;5.87;;
6725;SDS011;3400;48.506;11.692;2022-10-04T06:24:52;7.47;;;6.30;;
6725;SDS011;3400;48.506;11.692;2022-10-04T06:27:21;7.17;;;6.47;;
6725;SDS011;3400;48.506;11.692;2022-10-04T06:29:51;6.70;;;6.10;;
6725;SDS011;3400;48.506;11.692;2022-10-04T06:33:23;7.87;;;6.20;;
6725;SDS011;3400;48.506;11.692;2022-10-04T06:48:07;8.10;;;6.50;;
6725;SDS011;3400;48.506;11.692;2022-10-04T06:50:48;8.50;;;7.53;;
6725;SDS011;3400;48.506;11.692;2022-10-04T06:53:23;10.10;;;7.80;;
6725;SDS011;3400;48.506;11.692;2022-10-04T07:06:29;9.77;;;6.67;;
6725;SDS011;3400;48.506;11.692;2022-10-04T07:08:56;8.37;;;6.70;;
6725;SDS011;3400;48.506;11.692;2022-10-04T07:11:31;13.57;;;7.47;;
6725;SDS011;3400;48.506;11.692;2022-10-04T07:14:05;9.50;;;7.30;;
6725;SDS011;3400;48.506;11.692;2022-10-04T07:21:34;10.87;;;8.30;;
6725;SDS011;3400;48.506;11.692;2022-10-04T07:24:01;8.70;;;7.80;;
6725;SDS011;3400;48.506;11.692;2022-10-04T07:26:40;10.27;;;8.20;;
6725;SDS011;3400;48.506;11.692;2022-10-04T07:29:25;11.77;;;7.50;;
6725;SDS011;3400;48.506;11.692;2022-10-04T07:34:31;8.40;;;7.20;;
6725;SDS011;3400;48.506;11.692;2022-10-04T07:36:59;11.07;;;7.13;;
6725;SDS011;3400;48.506;11.692;2022-10-04T07:39:28;7.53;;;6.43;;
6725;SDS011;3400;48.506;11.692;2022-10-04T07:41:58;12.77;;;6.73;;
6725;SDS011;3400;48.506;11.692;2022-10-04T07:49:18;7.83;;;6.23;;
6725;SDS011;3400;48.506;11.692;2022-10-04T07:52:31;9.37;;;6.30;;
6725;SDS011;3400;48.506;11.692;2022-10-04T07:59:47;10.57;;;6.50;;
6725;SDS011;3400;48.506;11.692;2022-10-04T08:10:07;8.30;;;5.13;;
6725;SDS011;3400;48.506;11.692;2022-10-04T08:17:55;7.67;;;4.87;;
6725;SDS011;3400;48.506;11.692;2022-10-04T08:23:17;9.93;;;5.20;;
6725;SDS011;3400;48.506;11.692;2022-10-04T08:28:28;9.63;;;3.83;;
6725;SDS011;3400;48.506;11.692;2022-10-04T08:33:51;5.27;;;3.80;;
6725;SDS011;3400;48.506;11.692;2022-10-04T08:38:57;4.90;;;3.73;;
6725;SDS011;3400;48.506;11.692;2022-10-04T08:43:55;3.50;;;3.17;;
6725;SDS011;3400;48.506;11.692;2022-10-04T08:57:11;6.37;;;2.87;;
6725;SDS011;3400;48.506;11.692;2022-10-04T09:10:20;4.43;;;3.00;;
6725;SDS011;3400;48.506;11.692;2022-10-04T09:12:55;6.93;;;3.00;;
6725;SDS011;3400;48.506;11.692;2022-10-04T09:20:38;2.80;;;2.00;;
6725;SDS011;3400;48.506;11.692;2022-10-04T09:23:11;3.40;;;2.03;;
6725;SDS011;3400;48.506;11.692;2022-10-04T09:28:42;3.33;;;1.43;;
6725;SDS011;3400;48.506;11.692;2022-10-04T09:57:39;4.40;;;1.57;;
6725;SDS011;3400;48.506;11.692;2022-10-04T10:00:10;2.23;;;1.53;;
6725;SDS011;3400;48.506;11.692;2022-10-04T10:26:52;5.03;;;1.87;;
6725;SDS011;3400;48.506;11.692;2022-10-04T10:31:58;9.93;;;2.10;;
6725;SDS011;3400;48.506;11.692;2022-10-04T10:42:30;2.83;;;1.70;;
6725;SDS011;3400;48.506;11.692;2022-10-04T10:57:47;3.50;;;1.73;;
6725;SDS011;3400;48.506;11.692;2022-10-04T11:36:27;4.00;;;1.33;;
6725;SDS011;3400;48.506;11.692;2022-10-04T12:00:17;4.40;;;1.77;;
6725;SDS011;3400;48.506;11.692;2022-10-04T12:30:54;3.20;;;1.43;;
6725;SDS011;3400;48.506;11.692;2022-10-04T12:33:29;4.17;;;1.30;;
6725;SDS011;3400;48.506;11.692;2022-10-04T12:46:36;3.90;;;1.43;;
6725;SDS011;3400;48.506;11.692;2022-10-04T13:04:02;3.17;;;1.67;;
6725;SDS011;3400;48.506;11.692;2022-10-04T13:06:41;4.53;;;1.70;;
6725;SDS011;3400;48.506;11.692;2022-10-04T13:14:41;3.63;;;1.53;;
6725;SDS011;3400;48.506;11.692;2022-10-04T13:17:27;5.30;;;1.80;;
6725;SDS011;3400;48.506;11.692;2022-10-04T13:27:48;2.53;;;1.70;;
6725;SDS011;3400;48.506;11.692;2022-10-04T13:30:18;3.03;;;1.63;;
6725;SDS011;3400;48.506;11.692;2022-10-04T13:33:02;4.53;;;1.80;;
6725;SDS011;3400;48.506;11.692;2022-10-04T13:51:27;2.50;;;1.30;;
6725;SDS011;3400;48.506;11.692;2022-10-04T13:56:56;2.10;;;1.40;;
6725;SDS011;3400;48.506;11.692;2022-10-04T13:59:31;2.73;;;1.50;;
6725;SDS011;3400;48.506;11.692;2022-10-04T14:04:37;5.00;;;1.70;;
6725;SDS011;3400;48.506;11.692;2022-10-04T14:39:08;2.50;;;1.80;;
6725;SDS011;3400;48.506;11.692;2022-10-04T14:41:35;4.50;;;1.70;;
6725;SDS011;3400;48.506;11.692;2022-10-04T14:46:50;2.73;;;1.80;;
6725;SDS011;3400;48.506;11.692;2022-10-04T14:54:30;3.37;;;1.93;;
6725;SDS011;3400;48.506;11.692;2022-10-04T14:57:04;6.50;;;1.90;;
6725;SDS011;3400;48.506;11.692;2022-10-04T15:07:58;2.73;;;1.63;;
6725;SDS011;3400;48.506;11.692;2022-10-04T15:12:40;5.13;;;2.03;;
6725;SDS011;3400;48.506;11.692;2022-10-04T15:17:59;3.23;;;1.60;;
6725;SDS011;3400;48.506;11.692;2022-10-04T15:28:23;4.67;;;1.97;;
6725;SDS011;3400;48.506;11.692;2022-10-04T15:30:56;3.13;;;1.77;;
6725;SDS011;3400;48.506;11.692;2022-10-04T15:33:35;3.37;;;2.10;;
6725;SDS011;3400;48.506;11.692;2022-10-04T15:38:53;4.57;;;2.00;;
6725;SDS011;3400;48.506;11.692;2022-10-04T15:41:29;3.73;;;2.20;;
6725;SDS011;3400;48.506;11.692;2022-10-04T16:02:25;5.73;;;1.70;;
6725;SDS011;3400;48.506;11.692;2022-10-04T16:07:49;2.97;;;2.13;;
6725;SDS011;3400;48.506;11.692;2022-10-04T16:15:45;2.70;;;1.67;;
6725;SDS011;3400;48.506;11.692;2022-10-04T16:23:40;1.90;;;1.70;;
6725;SDS011;3400;48.506;11.692;2022-10-04T16:26:13;3.27;;;1.80;;
6725;SDS011;3400;48.506;11.692;2022-10-04T16:39:38;3.73;;;1.60;;
6725;SDS011;3400;48.506;11.692;2022-10-04T16:45:00;3.37;;;1.70;;
6725;SDS011;3400;48.506;11.692;2022-10-04T16:47:31;3.17;;;2.00;;
6725;SDS011;3400;48.506;11.692;2022-10-04T16:49:59;3.85;;;2.47;;
6725;SDS011;3400;48.506;11.692;2022-10-04T16:57:23;4.23;;;2.00;;
6725;SDS011;3400;48.506;11.692;2022-10-04T16:59:55;6.57;;;2.40;;
6725;SDS011;3400;48.506;11.692;2022-10-04T17:28:27;6.77;;;3.50;;
6725;SDS011;3400;48.506;11.692;2022-10-04T17:30:46;3.70;;;3.00;;
6725;SDS011;3400;48.506;11.692;2022-10-04T17:33:25;4.03;;;2.90;;
6725;SDS011;3400;48.506;11.692;2022-10-04T17:46:20;8.63;;;4.13;;
6725;SDS011;3400;48.506;11.692;2022-10-04T17:51:54;6.60;;;4.53;;
6725;SDS011;3400;48.506;11.692;2022-10-04T17:54:50;5.10;;;3.77;;
6725;SDS011;3400;48.506;11.692;2022-10-04T17:57:58;16.43;;;3.90;;
6725;SDS011;3400;48.506;11.692;2022-10-04T18:00:26;6.30;;;4.00;;
6725;SDS011;3400;48.506;11.692;2022-10-04T18:03:11;6.80;;;4.67;;
6725;SDS011;3400;48.506;11.692;2022-10-04T18:10:39;4.80;;;3.70;;
6725;SDS011;3400;48.506;11.692;2022-10-04T18:15:53;5.43;;;3.93;;
6725;SDS011;3400;48.506;11.692;2022-10-04T18:18:24;5.40;;;3.87;;
6725;SDS011;3400;48.506;11.692;2022-10-04T18:23:28;7.43;;;3.30;;
6725;SDS011;3400;48.506;11.692;2022-10-04T18:26:04;6.03;;;3.77;;
6725;SDS011;3400;48.506;11.692;2022-10-04T18:28:31;8.93;;;3.43;;
6725;SDS011;3400;48.506;11.692;2022-10-04T18:30:58;5.03;;;3.03;;
6725;SDS011;3400;48.506;11.692;2022-10-04T18:36:07;5.77;;;3.53;;
6725;SDS011;3400;48.506;11.692;2022-10-04T18:38:39;5.37;;;3.63;;
6725;SDS011;3400;48.506;11.692;2022-10-04T18:41:19;6.53;;;3.83;;
6725;SDS011;3400;48.506;11.692;2022-10-04T18:46:15;6.47;;;3.63;;
6725;SDS011;3400;48.506;11.692;2022-10-04T18:51:28;5.30;;;2.97;;
6725;SDS011;3400;48.506;11.692;2022-10-04T18:56:21;5.60;;;3.80;;
6725;SDS011;3400;48.506;11.692;2022-10-04T18:58:57;5.20;;;3.87;;
6725;SDS011;3400;48.506;11.692;2022-10-04T19:07:00;7.97;;;3.73;;
6725;SDS011;3400;48.506;11.692;2022-10-04T19:09:37;4.87;;;3.60;;
6725;SDS011;3400;48.506;11.692;2022-10-04T19:12:09;4.13;;;3.23;;
6725;SDS011;3400;48.506;11.692;2022-10-04T19:14:46;7.13;;;4.70;;
6725;SDS011;3400;48.506;11.692;2022-10-04T19:17:25;4.07;;;3.03;;
6725;SDS011;3400;48.506;11.692;2022-10-04T19:25:21;5.47;;;3.93;;
6725;SDS011;3400;48.506;11.692;2022-10-04T19:30:40;6.30;;;3.80;;
6725;SDS011;3400;48.506;11.692;2022-10-04T19:33:15;4.80;;;3.33;;
6725;SDS011;3400;48.506;11.692;2022-10-04T19:43:09;6.33;;;3.27;;
6725;SDS011;3400;48.506;11.692;2022-10-04T19:48:13;6.03;;;3.60;;
6725;SDS011;3400;48.506;11.692;2022-10-04T19:50:43;3.53;;;3.23;;
6725;SDS011;3400;48.506;11.692;2022-10-04T19:53:16;7.90;;;3.63;;
6725;SDS011;3400;48.506;11.692;2022-10-04T19:55:53;6.90;;;3.27;;
6725;SDS011;3400;48.506;11.692;2022-10-04T20:01:14;8.10;;;3.67;;
6725;SDS011;3400;48.506;11.692;2022-10-04T20:03:40;4.60;;;3.60;;
6725;SDS011;3400;48.506;11.692;2022-10-04T20:06:06;5.83;;;3.80;;
6725;SDS011;3400;48.506;11.692;2022-10-04T20:08:44;4.40;;;3.70;;
6725;SDS011;3400;48.506;11.692;2022-10-04T20:11:14;5.40;;;3.53;;
6725;SDS011;3400;48.506;11.692;2022-10-04T20:13:41;6.03;;;3.33;;
6725;SDS011;3400;48.506;11.692;2022-10-04T20:16:07;4.93;;;3.70;;
6725;SDS011;3400;48.506;11.692;2022-10-04T20:21:09;5.33;;;3.90;;
6725;SDS011;3400;48.506;11.692;2022-10-04T20:29:10;7.57;;;4.90;;
6725;SDS011;3400;48.506;11.692;2022-10-04T20:34:22;8.67;;;4.60;;
6725;SDS011;3400;48.506;11.692;2022-10-04T20:36:48;4.83;;;3.90;;
6725;SDS011;3400;48.506;11.692;2022-10-04T20:42:03;6.63;;;4.50;;
6725;SDS011;3400;48.506;11.692;2022-10-04T20:47:24;7.40;;;4.20;;
6725;SDS011;3400;48.506;11.692;2022-10-04T20:49:53;9.67;;;3.60;;
6725;SDS011;3400;48.506;11.692;2022-10-04T20:52:26;5.17;;;4.33;;
6725;SDS011;3400;48.506;11.692;2022-10-04T20:54:53;6.20;;;4.23;;
6725;SDS011;3400;48.506;11.692;2022-10-04T20:57:21;7.20;;;4.23;;
6725;SDS011;3400;48.506;11.692;2022-10-04T20:59:48;8.03;;;4.60;;
6725;SDS011;3400;48.506;11.692;2022-10-04T21:02:15;4.87;;;4.37;;
6725;SDS011;3400;48.506;11.692;2022-10-04T21:04:42;6.70;;;4.80;;
6725;SDS011;3400;48.506;11.692;2022-10-04T21:07:15;7.60;;;4.30;;
6725;SDS011;3400;48.506;11.692;2022-10-04T21:09:41;6.63;;;4.07;;
6725;SDS011;3400;48.506;11.692;2022-10-04T21:12:26;6.20;;;3.77;;
6725;SDS011;3400;48.506;11.692;2022-10-04T21:17:37;7.50;;;4.97;;
6725;SDS011;3400;48.506;11.692;2022-10-04T21:20:04;5.83;;;3.70;;
6725;SDS011;3400;48.506;11.692;2022-10-04T21:22:33;6.50;;;5.00;;
6725;SDS011;3400;48.506;11.692;2022-10-04T21:25:01;8.27;;;5.37;;
6725;SDS011;3400;48.506;11.692;2022-10-04T21:29:54;9.63;;;5.13;;
6725;SDS011;3400;48.506;11.692;2022-10-04T21:32:20;6.90;;;4.50;;
6725;SDS011;3400;48.506;11.692;2022-10-04T21:34:47;6.97;;;4.83;;
6725;SDS011;3400;48.506;11.692;2022-10-04T21:37:13;8.03;;;4.53;;
6725;SDS011;3400;48.506;11.692;2022-10-04T21:39:39;8.97;;;4.87;;
6725;SDS011;3400;48.506;11.692;2022-10-04T21:42:05;6.83;;;5.00;;
6725;SDS011;3400;48.506;11.692;2022-10-04T21:44:31;6.87;;;4.03;;
6725;SDS011;3400;48.506;11.692;2022-10-04T21:46:57;6.67;;;4.33;;
6725;SDS011;3400;48.506;11.692;2022-10-04T21:49:23;7.30;;;5.10;;
6725;SDS011;3400;48.506;11.692;2022-10-04T21:51:49;8.60;;;4.60;;
6725;SDS011;3400;48.506;11.692;2022-10-04T21:54:15;10.90;;;4.50;;
6725;SDS011;3400;48.506;11.692;2022-10-04T21:56:41;11.03;;;4.97;;
6725;SDS011;3400;48.506;11.692;2022-10-04T21:59:07;6.50;;;5.07;;
6725;SDS011;3400;48.506;11.692;2022-10-04T22:01:33;7.90;;;5.77;;
6725;SDS011;3400;48.506;11.692;2022-10-04T22:03:59;8.10;;;4.83;;
6725;SDS011;3400;48.506;11.692;2022-10-04T22:06:25;8.33;;;4.90;;
6725;SDS011;3400;48.506;11.692;2022-10-04T22:08:51;7.00;;;4.80;;
6725;SDS011;3400;48.506;11.692;2022-10-04T22:11:17;6.47;;;4.97;;
6725;SDS011;3400;48.506;11.692;2022-10-04T22:13:43;5.60;;;5.10;;
6725;SDS011;3400;48.506;11.692;2022-10-04T22:16:10;11.03;;;5.67;;
6725;SDS011;3400;48.506;11.692;2022-10-04T22:18:36;6.10;;;5.37;;
6725;SDS011;3400;48.506;11.692;2022-10-04T22:21:03;7.70;;;5.37;;
6725;SDS011;3400;48.506;11.692;2022-10-04T22:23:30;8.13;;;6.10;;
6725;SDS011;3400;48.506;11.692;2022-10-04T22:26:04;8.40;;;5.73;;
6725;SDS011;3400;48.506;11.692;2022-10-04T22:28:34;10.53;;;6.17;;
6725;SDS011;3400;48.506;11.692;2022-10-04T22:31:09;11.00;;;6.60;;
6725;SDS011;3400;48.506;11.692;2022-10-04T22:33:36;7.07;;;6.00;;
6725;SDS011;3400;48.506;11.692;2022-10-04T22:38:37;8.73;;;6.03;;
6725;SDS011;3400;48.506;11.692;2022-10-04T22:41:13;6.97;;;5.93;;
6725;SDS011;3400;48.506;11.692;2022-10-04T22:43:39;8.97;;;6.63;;
6725;SDS011;3400;48.506;11.692;2022-10-04T22:46:10;7.50;;;6.37;;
6725;SDS011;3400;48.506;11.692;2022-10-04T22:48:36;9.47;;;6.97;;
6725;SDS011;3400;48.506;11.692;2022-10-04T22:51:02;9.17;;;6.47;;
6725;SDS011;3400;48.506;11.692;2022-10-04T22:53:28;16.40;;;6.97;;
6725;SDS011;3400;48.506;11.692;2022-10-04T22:55:54;9.67;;;6.80;;
6725;SDS011;3400;48.506;11.692;2022-10-04T22:58:21;10.33;;;6.30;;
6725;SDS011;3400;48.506;11.692;2022-10-04T23:00:48;8.33;;;6.40;;
6725;SDS011;3400;48.506;11.692;2022-10-04T23:03:24;12.57;;;7.80;;
6725;SDS011;3400;48.506;11.692;2022-10-04T23:05:51;12.27;;;6.57;;
6725;SDS011;3400;48.506;11.692;2022-10-04T23:08:17;8.50;;;6.97;;
6725;SDS011;3400;48.506;11.692;2022-10-04T23:10:44;10.23;;;7.30;;
6725;SDS011;3400;48.506;11.692;2022-10-04T23:13:10;12.87;;;7.13;;
6725;SDS011;3400;48.506;11.692;2022-10-04T23:15:36;9.50;;;7.67;;
6725;SDS011;3400;48.506;11.692;2022-10-04T23:18:04;11.47;;;8.90;;
6725;SDS011;3400;48.506;11.692;2022-10-04T23:20:36;12.23;;;7.70;;
6725;SDS011;3400;48.506;11.692;2022-10-04T23:23:04;10.50;;;8.07;;
6725;SDS011;3400;48.506;11.692;2022-10-04T23:25:34;14.63;;;9.20;;
6725;SDS011;3400;48.506;11.692;2022-10-04T23:28:00;12.73;;;9.03;;
6725;SDS011;3400;48.506;11.692;2022-10-04T23:30:27;10.37;;;8.03;;
6725;SDS011;3400;48.506;11.692;2022-10-04T23:32:56;13.83;;;7.90;;
6725;SDS011;3400;48.506;11.692;2022-10-04T23:35:29;11.60;;;7.13;;
6725;SDS011;3400;48.506;11.692;2022-10-04T23:37:55;16.50;;;9.07;;
6725;SDS011;3400;48.506;11.692;2022-10-04T23:40:22;12.43;;;7.80;;
6725;SDS011;3400;48.506;11.692;2022-10-04T23:42:50;10.03;;;7.67;;
6725;SDS011;3400;48.506;11.692;2022-10-04T23:45:18;17.47;;;8.20;;
6725;SDS011;3400;48.506;11.692;2022-10-04T23:47:45;11.30;;;8.10;;
6725;SDS011;3400;48.506;11.692;2022-10-04T23:50:31;11.60;;;8.30;;
6725;SDS011;3400;48.506;11.692;2022-10-04T23:52:59;10.30;;;7.40;;
6725;SDS011;3400;48.506;11.692;2022-10-04T23:55:29;10.17;;;7.07;;
6725;SDS011;3400;48.506;11.692;2022-10-04T23:57:57;11.60;;;7.63;;
